createdAt,value
2017-10-25T00:02:13.311Z,5.40
2017-10-25T00:07:16.612Z,6.40
2017-10-25T00:12:20.458Z,6.03
2017-10-25T00:17:24.524Z,5.83
2017-10-25T00:22:27.210Z,6.10
2017-10-25T00:27:30.864Z,7.53
2017-10-25T00:32:33.479Z,6.00
2017-10-25T00:37:36.305Z,7.10
2017-10-25T00:42:38.896Z,6.00
2017-10-25T00:47:42.514Z,6.70
2017-10-25T00:52:45.149Z,7.00
2017-10-25T00:57:50.236Z,6.67
2017-10-25T01:02:52.861Z,9.00
2017-10-25T01:07:55.923Z,7.00
2017-10-25T01:12:59.325Z,7.10
2017-10-25T01:18:02.017Z,8.90
2017-10-25T01:23:04.625Z,9.57
2017-10-25T01:28:07.652Z,9.37
2017-10-25T01:33:11.034Z,8.40
2017-10-25T01:38:14.485Z,8.43
2017-10-25T01:43:17.830Z,9.83
2017-10-25T01:48:20.584Z,9.10
2017-10-25T01:53:24.058Z,9.77
2017-10-25T01:58:26.804Z,10.07
2017-10-25T02:03:30.207Z,11.47
2017-10-25T02:08:33.128Z,9.30
2017-10-25T02:13:36.551Z,9.77
2017-10-25T02:18:40.259Z,13.23
2017-10-25T02:23:42.915Z,11.37
2017-10-25T02:28:46.409Z,13.20
2017-10-25T02:33:49.001Z,11.33
2017-10-25T02:38:53.136Z,11.03
2017-10-25T02:43:55.748Z,12.50
2017-10-25T02:48:59.353Z,10.47
2017-10-25T02:54:02.751Z,10.27
2017-10-25T02:59:06.483Z,9.27
2017-10-25T03:04:09.865Z,10.30
2017-10-25T03:09:13.943Z,9.10
2017-10-25T03:14:17.321Z,9.97
2017-10-25T03:19:20.292Z,10.00
2017-10-25T03:24:22.924Z,9.37
2017-10-25T03:29:26.171Z,10.57
2017-10-25T03:34:29.585Z,10.37
2017-10-25T03:39:33.727Z,10.03
2017-10-25T03:44:37.083Z,9.77
2017-10-25T03:49:40.269Z,10.20
2017-10-25T03:54:42.893Z,9.67
2017-10-25T03:59:46.261Z,8.87
2017-10-25T04:04:49.647Z,8.20
2017-10-25T04:09:52.730Z,9.03
2017-10-25T04:14:55.355Z,8.70
2017-10-25T04:19:58.020Z,9.07
2017-10-25T04:25:00.633Z,9.97
2017-10-25T04:30:03.678Z,7.60
2017-10-25T04:35:06.311Z,10.37
2017-10-25T04:40:09.276Z,9.80
2017-10-25T04:45:11.901Z,8.30
2017-10-25T04:50:15.848Z,10.47
2017-10-25T04:55:18.459Z,10.73
2017-10-25T05:00:21.605Z,8.63
2017-10-25T05:05:24.223Z,8.87
2017-10-25T05:10:27.488Z,9.77
2017-10-25T05:15:30.121Z,8.27
2017-10-25T05:20:32.981Z,10.47
2017-10-25T05:25:35.609Z,8.93
2017-10-25T05:30:38.406Z,10.07
2017-10-25T05:35:41.028Z,11.43
2017-10-25T05:40:43.791Z,9.83
2017-10-25T05:45:46.419Z,10.43
2017-10-25T05:50:49.194Z,9.60
2017-10-25T05:55:51.812Z,9.53
2017-10-25T06:00:55.028Z,10.63
2017-10-25T06:05:57.649Z,9.03
2017-10-25T06:11:00.849Z,11.63
2017-10-25T06:16:03.456Z,13.63
2017-10-25T06:21:06.424Z,12.53
2017-10-25T06:26:09.056Z,12.50
2017-10-25T06:31:12.424Z,9.67
2017-10-25T06:36:15.060Z,8.83
2017-10-25T06:41:17.732Z,16.17
2017-10-25T06:46:20.354Z,8.73
2017-10-25T06:51:23.794Z,9.07
2017-10-25T06:56:26.434Z,9.10
2017-10-25T07:01:29.371Z,7.87
2017-10-25T07:06:31.985Z,6.57
2017-10-25T07:11:34.859Z,6.27
2017-10-25T07:16:37.487Z,6.20
2017-10-25T07:21:40.337Z,6.50
2017-10-25T07:26:42.960Z,6.97
2017-10-25T07:31:46.232Z,6.37
2017-10-25T07:36:49.627Z,9.00
2017-10-25T07:41:53.014Z,7.77
2017-10-25T07:46:55.646Z,6.80
2017-10-25T07:51:58.594Z,6.73
2017-10-25T07:57:01.213Z,7.67
2017-10-25T08:02:03.878Z,5.87
2017-10-25T08:07:07.300Z,5.63
2017-10-25T08:12:09.901Z,6.00
2017-10-25T08:17:12.493Z,6.77
2017-10-25T08:22:15.971Z,6.00
2017-10-25T08:27:18.581Z,6.67
2017-10-25T08:32:22.050Z,5.93
2017-10-25T08:37:24.660Z,5.23
2017-10-25T08:42:27.523Z,5.23
2017-10-25T08:47:30.147Z,6.30
2017-10-25T08:52:34.640Z,4.47
2017-10-25T08:57:38.050Z,4.80
2017-10-25T09:02:40.830Z,4.43
2017-10-25T09:07:43.537Z,5.20
2017-10-25T09:12:46.878Z,4.63
2017-10-25T09:17:49.450Z,6.17
2017-10-25T09:22:52.252Z,4.80
2017-10-25T09:27:54.848Z,5.43
2017-10-25T09:32:57.615Z,5.90
2017-10-25T09:38:00.237Z,4.80
2017-10-25T09:43:02.895Z,4.50
2017-10-25T09:48:06.313Z,3.97
2017-10-25T09:53:10.385Z,3.40
2017-10-25T09:58:13.007Z,3.73
2017-10-25T10:03:15.970Z,3.27
2017-10-25T10:08:18.602Z,3.97
2017-10-25T10:13:21.566Z,2.60
2017-10-25T10:18:24.183Z,5.10
2017-10-25T10:23:26.826Z,4.63
2017-10-25T10:28:29.442Z,2.40
2017-10-25T10:33:33.267Z,4.13
2017-10-25T10:38:36.646Z,7.17
2017-10-25T10:43:40.205Z,2.93
2017-10-25T10:48:43.606Z,2.90
2017-10-25T10:53:46.229Z,2.40
2017-10-25T10:58:49.621Z,3.30
2017-10-25T11:03:52.618Z,2.53
2017-10-25T11:08:55.401Z,2.00
2017-10-25T11:13:58.466Z,2.13
2017-10-25T11:19:01.869Z,2.80
2017-10-25T11:24:05.611Z,1.63
2017-10-25T11:29:08.232Z,2.13
2017-10-25T11:34:10.890Z,2.30
2017-10-25T11:39:13.566Z,1.70
2017-10-25T11:44:16.556Z,1.70
2017-10-25T11:49:19.195Z,2.03
2017-10-25T11:54:22.434Z,2.10
2017-10-25T11:59:25.054Z,1.70
2017-10-25T12:04:28.398Z,2.13
2017-10-25T12:09:31.070Z,3.40
2017-10-25T12:14:33.948Z,1.70
2017-10-25T12:19:37.343Z,2.50
2017-10-25T12:24:40.028Z,1.50
2017-10-25T12:29:42.643Z,1.30
2017-10-25T12:34:46.497Z,2.13
2017-10-25T12:39:49.117Z,2.37
2017-10-25T12:44:52.578Z,4.93
2017-10-25T12:49:55.306Z,1.50
2017-10-25T12:54:59.232Z,2.23
2017-10-25T13:00:02.628Z,1.70
2017-10-25T13:05:06.027Z,2.30
2017-10-25T13:15:52.824Z,1.50
2017-10-25T13:20:56.425Z,3.40
2017-10-25T13:25:59.048Z,3.03
2017-10-25T13:31:03.162Z,2.00
2017-10-25T13:36:05.786Z,3.40
2017-10-25T13:41:09.730Z,2.13
2017-10-25T13:46:12.344Z,2.20
2017-10-25T13:51:15.208Z,7.30
2017-10-25T13:56:17.823Z,2.00
2017-10-25T14:01:22.175Z,2.13
2017-10-25T14:06:24.773Z,2.30
2017-10-25T14:11:27.650Z,3.73
2017-10-25T14:16:31.039Z,1.90
2017-10-25T14:21:34.515Z,3.10
2017-10-25T14:26:49.050Z,2.80
2017-10-25T14:31:52.424Z,2.10
2017-10-25T14:36:55.029Z,2.17
2017-10-25T14:41:58.178Z,2.07
2017-10-25T14:47:00.808Z,2.83
2017-10-25T14:52:03.999Z,3.23
2017-10-25T14:57:06.622Z,3.57
2017-10-25T15:02:10.083Z,3.60
2017-10-25T15:07:12.698Z,2.57
2017-10-25T15:12:15.346Z,3.17
2017-10-25T15:17:17.961Z,2.67
2017-10-25T15:22:20.607Z,2.63
2017-10-25T15:27:24.018Z,2.93
2017-10-25T15:32:27.377Z,3.33
2017-10-25T15:37:29.981Z,2.60
2017-10-25T15:42:33.380Z,2.60
2017-10-25T15:47:36.009Z,3.50
2017-10-25T15:52:38.957Z,3.07
2017-10-25T15:57:41.581Z,3.03
2017-10-25T16:02:44.464Z,3.07
2017-10-25T16:07:47.065Z,4.90
2017-10-25T16:12:51.940Z,4.03
2017-10-25T16:17:54.560Z,4.53
2017-10-25T16:22:57.748Z,2.70
2017-10-25T16:28:00.377Z,2.73
2017-10-25T16:33:03.450Z,4.67
2017-10-25T16:38:06.832Z,3.57
2017-10-25T16:43:10.016Z,3.70
2017-10-25T16:48:13.593Z,5.10
2017-10-25T16:53:17.117Z,3.63
2017-10-25T16:58:20.508Z,3.97
2017-10-25T17:03:23.659Z,4.83
2017-10-25T17:08:26.262Z,3.70
2017-10-25T17:13:29.326Z,5.17
2017-10-25T17:18:31.932Z,4.73
2017-10-25T17:23:35.887Z,4.10
2017-10-25T17:28:38.521Z,5.17
2017-10-25T17:33:44.121Z,5.40
2017-10-25T17:38:46.739Z,5.23
2017-10-25T17:43:50.651Z,5.53
2017-10-25T17:48:53.261Z,5.13
2017-10-25T17:53:57.003Z,5.37
2017-10-25T17:58:59.628Z,7.20
2017-10-25T18:04:02.791Z,5.80
2017-10-25T18:09:05.452Z,5.93
2017-10-25T18:14:08.519Z,4.73
2017-10-25T18:19:11.932Z,4.80
2017-10-25T18:24:15.462Z,7.03
2017-10-25T18:29:18.087Z,6.57
2017-10-25T18:34:21.376Z,4.93
2017-10-25T18:39:23.995Z,4.80
2017-10-25T18:44:26.767Z,12.83
2017-10-25T18:49:31.133Z,7.17
2017-10-25T18:54:35.341Z,7.00
2017-10-25T18:59:38.728Z,7.63
2017-10-25T19:04:42.742Z,7.33
2017-10-25T19:09:45.358Z,6.50
2017-10-25T19:14:48.514Z,6.57
2017-10-25T19:19:51.184Z,7.77
2017-10-25T19:24:55.255Z,6.37
2017-10-25T19:29:57.835Z,8.00
2017-10-25T19:35:00.790Z,7.63
2017-10-25T19:40:03.407Z,6.90
2017-10-25T19:45:06.583Z,8.60
2017-10-25T19:50:09.203Z,7.17
2017-10-25T19:55:12.474Z,7.97
2017-10-25T20:00:15.095Z,6.87
2017-10-25T20:05:18.422Z,6.93
2017-10-25T20:10:21.035Z,7.73
2017-10-25T20:15:24.559Z,9.43
2017-10-25T20:20:27.168Z,8.53
2017-10-25T20:25:30.192Z,8.97
2017-10-25T20:30:33.598Z,10.07
2017-10-25T20:35:37.324Z,11.30
2017-10-25T20:40:40.705Z,9.67
2017-10-25T20:45:43.871Z,9.23
2017-10-25T20:50:46.515Z,11.73
2017-10-25T20:55:52.572Z,9.53
2017-10-25T21:00:55.706Z,10.47
2017-10-25T21:05:59.292Z,10.93
2017-10-25T21:11:01.907Z,10.13
2017-10-25T21:16:04.912Z,35.67
2017-10-25T21:21:07.727Z,9.97
2017-10-25T21:26:11.176Z,12.33
2017-10-25T21:31:13.797Z,12.67
2017-10-25T21:36:17.750Z,9.77
2017-10-25T21:41:20.372Z,12.03
2017-10-25T21:46:23.346Z,10.87
2017-10-25T21:51:26.007Z,10.77
2017-10-25T21:56:28.674Z,10.53
2017-10-25T22:01:31.310Z,10.33
2017-10-25T22:06:34.173Z,12.43
2017-10-25T22:11:36.828Z,8.73
2017-10-25T22:16:40.870Z,10.13
2017-10-25T22:21:44.262Z,12.10
2017-10-25T22:26:47.507Z,9.73
2017-10-25T22:31:50.128Z,12.37
2017-10-25T22:36:52.989Z,12.43
2017-10-25T22:41:56.357Z,12.40
2017-10-25T22:46:59.518Z,9.67
2017-10-25T22:52:02.898Z,11.00
2017-10-25T22:57:06.271Z,10.33
2017-10-25T23:02:08.934Z,11.40
2017-10-25T23:07:12.849Z,13.30
2017-10-25T23:12:15.449Z,12.87
2017-10-25T23:17:18.355Z,12.07
2017-10-25T23:22:20.941Z,13.50
2017-10-25T23:27:24.303Z,13.77
2017-10-25T23:32:26.926Z,12.93
2017-10-25T23:37:30.187Z,12.00
2017-10-25T23:42:32.812Z,14.33
2017-10-25T23:47:35.855Z,12.53
2017-10-25T23:52:38.506Z,16.23
2017-10-25T23:57:42.318Z,15.80
